createdAt,value
2023-03-04T00:00:35.438Z,99551.09
2023-03-04T00:02:38.290Z,99562.81
2023-03-04T00:04:41.253Z,99550.81
2023-03-04T00:06:44.278Z,99557.91
2023-03-04T00:08:47.126Z,99551.31
2023-03-04T00:10:51.558Z,99545.81
2023-03-04T00:12:54.408Z,99544.00
2023-03-04T00:14:57.353Z,99538.72
2023-03-04T00:17:00.321Z,99539.56
2023-03-04T00:19:03.308Z,99529.00
2023-03-04T00:21:06.558Z,99532.31
2023-03-04T00:23:09.508Z,99526.81
2023-03-04T00:25:12.617Z,99536.91
2023-03-04T00:27:17.089Z,99529.59
2023-03-04T00:29:20.045Z,99525.50
2023-03-04T00:31:23.018Z,99522.41
2023-03-04T00:33:25.898Z,99524.00
2023-03-04T00:35:28.808Z,99519.53
2023-03-04T00:37:31.724Z,99514.41
2023-03-04T00:39:34.798Z,99521.72
2023-03-04T00:41:37.676Z,99508.28
2023-03-04T00:43:42.036Z,99511.56
2023-03-04T00:45:44.968Z,99501.22
2023-03-04T00:47:47.945Z,99498.25
2023-03-04T00:49:50.910Z,99494.13
2023-03-04T00:51:54.312Z,99486.31
2023-03-04T00:53:59.682Z,99488.19
2023-03-04T00:56:03.665Z,99483.00
2023-03-04T00:58:07.611Z,99482.03
2023-03-04T01:00:14.118Z,99484.97
2023-03-04T01:02:17.132Z,99474.78
2023-03-04T01:04:20.396Z,99478.38
2023-03-04T01:06:23.317Z,99467.31
2023-03-04T01:08:26.805Z,99465.19
2023-03-04T01:10:29.793Z,99459.53
2023-03-04T01:12:32.718Z,99455.72
2023-03-04T01:14:35.844Z,99460.25
2023-03-04T01:16:40.324Z,99448.28
2023-03-04T01:18:43.198Z,99443.72
2023-03-04T01:20:46.154Z,99436.31
2023-03-04T01:22:49.111Z,99435.25
2023-03-04T01:24:52.074Z,99424.69
2023-03-04T01:26:54.945Z,99430.19
2023-03-04T01:28:58.393Z,99418.59
2023-03-04T01:31:01.245Z,99419.13
2023-03-04T01:33:05.709Z,99416.09
2023-03-04T01:35:09.509Z,99406.06
2023-03-04T01:37:14.212Z,99409.03
2023-03-04T01:39:17.156Z,99408.38
2023-03-04T01:41:25.083Z,99402.25
2023-03-04T01:43:29.942Z,99413.16
2023-03-04T01:45:34.095Z,99399.59
2023-03-04T01:47:37.023Z,99397.13
2023-03-04T01:49:42.357Z,99393.47
2023-03-04T01:51:49.877Z,99385.06
2023-03-04T01:53:55.246Z,99380.94
2023-03-04T01:56:01.548Z,99377.91
2023-03-04T01:58:10.209Z,99378.28
2023-03-04T02:00:20.366Z,99382.41
2023-03-04T02:02:23.831Z,99384.88
2023-03-04T02:04:29.004Z,99390.84
2023-03-04T02:06:33.707Z,99383.53
2023-03-04T02:08:36.798Z,99383.72
2023-03-04T02:10:40.878Z,99382.91
2023-03-04T02:12:44.675Z,99375.44
2023-03-04T02:14:47.840Z,99376.28
2023-03-04T02:16:51.307Z,99371.84
2023-03-04T02:18:54.720Z,99371.03
2023-03-04T02:21:05.809Z,99371.66
2023-03-04T02:23:20.280Z,99377.28
2023-03-04T02:25:29.879Z,99362.56
2023-03-04T02:27:34.840Z,99354.50
2023-03-04T02:29:38.129Z,99362.09
2023-03-04T02:31:43.808Z,99364.56
2023-03-04T02:33:48.102Z,99349.88
2023-03-04T02:35:51.068Z,99354.47
2023-03-04T02:37:54.989Z,99350.34
2023-03-04T02:39:59.889Z,99337.81
2023-03-04T02:42:04.319Z,99338.47
2023-03-04T02:44:17.944Z,99339.16
2023-03-04T02:46:21.388Z,99335.84
2023-03-04T02:48:24.772Z,99340.13
2023-03-04T02:50:30.450Z,99333.16
2023-03-04T02:52:33.321Z,99326.75
2023-03-04T02:54:38.440Z,99328.34
2023-03-04T02:56:45.920Z,99317.31
2023-03-04T02:58:48.839Z,99320.94
2023-03-04T03:00:53.382Z,99315.78
2023-03-04T03:02:57.445Z,99317.09
2023-03-04T03:05:00.531Z,99313.50
2023-03-04T03:07:04.433Z,99320.44
2023-03-04T03:09:07.926Z,99331.66
2023-03-04T03:11:10.792Z,99328.47
2023-03-04T03:13:14.161Z,99331.94
2023-03-04T03:15:17.923Z,99330.66
2023-03-04T03:17:22.322Z,99325.81
2023-03-04T03:19:25.441Z,99324.03
2023-03-04T03:21:29.896Z,99328.00
2023-03-04T03:23:32.839Z,99329.00
2023-03-04T03:25:35.917Z,99334.41
2023-03-04T03:27:39.132Z,99331.47
2023-03-04T03:29:42.286Z,99332.16
2023-03-04T03:31:45.390Z,99340.88
2023-03-04T03:33:49.908Z,99329.00
2023-03-04T03:35:52.815Z,99338.22
2023-03-04T03:37:55.838Z,99340.22
2023-03-04T03:39:58.681Z,99328.78
2023-03-04T03:42:01.605Z,99329.81
2023-03-04T03:44:04.708Z,99317.78
2023-03-04T03:46:07.619Z,99315.94
2023-03-04T03:48:10.514Z,99320.41
2023-03-04T03:50:14.950Z,99321.88
2023-03-04T03:52:17.849Z,99315.97
2023-03-04T03:54:21.004Z,99311.81
2023-03-04T03:56:23.859Z,99321.09
2023-03-04T03:58:27.563Z,99313.31
2023-03-04T04:00:30.528Z,99317.78
2023-03-04T04:02:33.705Z,99324.72
2023-03-04T04:04:36.598Z,99325.69
2023-03-04T04:06:41.081Z,99316.97
2023-03-04T04:08:43.959Z,99316.44
2023-03-04T04:10:46.930Z,99318.78
2023-03-04T04:12:49.970Z,99321.88
2023-03-04T04:14:52.880Z,99309.50
2023-03-04T04:16:55.799Z,99311.00
2023-03-04T04:18:58.804Z,99317.09
2023-03-04T04:21:01.852Z,99318.09
2023-03-04T04:23:06.388Z,99321.72
2023-03-04T04:25:10.960Z,99318.44
2023-03-04T04:27:14.215Z,99318.09
2023-03-04T04:29:17.718Z,99317.63
2023-03-04T04:31:20.961Z,99308.38
2023-03-04T04:33:23.788Z,99311.81
2023-03-04T04:35:27.182Z,99317.94
2023-03-04T04:37:30.275Z,99314.13
2023-03-04T04:39:34.796Z,99311.34
2023-03-04T04:41:41.763Z,99310.50
2023-03-04T04:43:44.736Z,99317.97
2023-03-04T04:45:47.685Z,99314.16
2023-03-04T04:47:50.748Z,99312.50
2023-03-04T04:49:53.775Z,99313.78
2023-03-04T04:51:56.637Z,99319.75
2023-03-04T04:53:59.873Z,99311.50
2023-03-04T04:56:11.277Z,99313.97
2023-03-04T04:58:14.076Z,99306.53
2023-03-04T05:00:19.384Z,99313.31
2023-03-04T05:02:22.242Z,99312.66
2023-03-04T05:04:25.600Z,99310.69
2023-03-04T05:06:28.581Z,99309.84
2023-03-04T05:08:31.518Z,99303.09
2023-03-04T05:10:34.599Z,99307.06
2023-03-04T05:12:39.219Z,99292.16
2023-03-04T05:14:42.051Z,99298.59
2023-03-04T05:16:44.996Z,99292.69
2023-03-04T05:18:48.567Z,99292.81
2023-03-04T05:20:52.433Z,99286.91
2023-03-04T05:22:55.395Z,99287.22
2023-03-04T05:24:58.468Z,99290.69
2023-03-04T05:27:01.850Z,99285.06
2023-03-04T05:29:06.522Z,99289.75
2023-03-04T05:31:09.626Z,99282.44
2023-03-04T05:33:13.471Z,99290.72
2023-03-04T05:35:16.480Z,99285.97
2023-03-04T05:37:19.710Z,99280.00
2023-03-04T05:39:22.753Z,99268.56
2023-03-04T05:41:26.193Z,99272.22
2023-03-04T05:43:29.994Z,99271.56
2023-03-04T05:45:34.482Z,99280.50
2023-03-04T05:47:37.493Z,99273.88
2023-03-04T05:49:41.487Z,99272.72
2023-03-04T05:51:44.406Z,99267.75
2023-03-04T05:53:47.513Z,99275.06
2023-03-04T05:55:50.873Z,99270.25
2023-03-04T05:57:54.083Z,99271.09
2023-03-04T05:59:56.983Z,99263.84
2023-03-04T06:02:01.383Z,99256.75
2023-03-04T06:04:04.461Z,99257.72
2023-03-04T06:06:07.495Z,99260.72
2023-03-04T06:08:10.962Z,99263.00
2023-03-04T06:10:15.783Z,99258.22
2023-03-04T06:12:18.888Z,99260.38
2023-03-04T06:14:21.880Z,99265.34
2023-03-04T06:16:24.976Z,99267.47
2023-03-04T06:18:29.879Z,99266.81
2023-03-04T06:20:33.067Z,99266.31
2023-03-04T06:22:36.245Z,99273.25
2023-03-04T06:24:39.328Z,99265.03
2023-03-04T06:26:42.254Z,99270.47
2023-03-04T06:28:45.809Z,99270.13
2023-03-04T06:30:48.790Z,99270.16
2023-03-04T06:32:51.661Z,99270.84
2023-03-04T06:34:56.318Z,99278.75
2023-03-04T06:36:59.152Z,99279.25
2023-03-04T06:39:03.395Z,99281.09
2023-03-04T06:41:11.140Z,99290.69
2023-03-04T06:43:14.180Z,99281.25
2023-03-04T06:45:17.203Z,99293.00
2023-03-04T06:47:20.240Z,99289.53
2023-03-04T06:49:23.455Z,99289.69
2023-03-04T06:51:28.329Z,99292.66
2023-03-04T06:53:31.288Z,99297.63
2023-03-04T06:55:34.206Z,99300.28
2023-03-04T06:57:37.321Z,99299.28
2023-03-04T06:59:40.290Z,99307.72
2023-03-04T07:01:43.520Z,99305.59
2023-03-04T07:03:47.316Z,99303.63
2023-03-04T07:05:50.314Z,99297.97
2023-03-04T07:07:54.840Z,99301.09
2023-03-04T07:09:57.773Z,99302.94
2023-03-04T07:12:01.064Z,99309.06
2023-03-04T07:14:04.000Z,99303.75
2023-03-04T07:16:08.814Z,99318.81
2023-03-04T07:18:11.767Z,99316.00
2023-03-04T07:20:14.942Z,99328.88
2023-03-04T07:22:17.795Z,99331.84
2023-03-04T07:24:22.440Z,99330.88
2023-03-04T07:26:25.320Z,99331.06
2023-03-04T07:28:28.415Z,99328.56
2023-03-04T07:30:31.212Z,99329.56
2023-03-04T07:32:36.032Z,99319.31
2023-03-04T07:34:39.131Z,99328.75
2023-03-04T07:36:42.878Z,99328.41
2023-03-04T07:38:46.401Z,99321.44
2023-03-04T07:40:57.869Z,99326.91
2023-03-04T07:43:00.809Z,99329.91
2023-03-04T07:45:05.851Z,99331.69
2023-03-04T07:47:08.961Z,99323.63
2023-03-04T07:49:14.482Z,99329.22
2023-03-04T07:51:18.002Z,99315.16
2023-03-04T07:53:20.895Z,99323.94
2023-03-04T07:55:23.808Z,99319.31
2023-03-04T07:57:28.494Z,99323.47
2023-03-04T07:59:32.191Z,99326.09
2023-03-04T08:01:37.045Z,99325.25
2023-03-04T08:03:40.111Z,99317.66
2023-03-04T08:05:42.972Z,99323.94
2023-03-04T08:07:45.924Z,99321.63
2023-03-04T08:09:49.246Z,99321.78
2023-03-04T08:11:52.211Z,99318.66
2023-03-04T08:13:56.722Z,99324.25
2023-03-04T08:15:59.791Z,99321.47
2023-03-04T08:18:03.030Z,99318.16
2023-03-04T08:20:07.040Z,99315.84
2023-03-04T08:22:10.135Z,99324.63
2023-03-04T08:24:13.396Z,99319.63
2023-03-04T08:26:19.081Z,99315.66
2023-03-04T08:28:22.040Z,99320.13
2023-03-04T08:30:26.788Z,99322.94
2023-03-04T08:32:30.253Z,99320.47
2023-03-04T08:34:33.233Z,99320.47
2023-03-04T08:36:36.141Z,99323.63
2023-03-04T08:38:39.262Z,99323.63
2023-03-04T08:40:42.167Z,99323.97
2023-03-04T08:42:45.240Z,99327.28
2023-03-04T08:44:48.443Z,99318.00
2023-03-04T08:46:52.894Z,99326.25
2023-03-04T08:48:55.840Z,99309.22
2023-03-04T08:50:59.167Z,99317.84
2023-03-04T08:53:02.420Z,99310.03
2023-03-04T08:55:06.140Z,99313.03
2023-03-04T08:57:09.071Z,99309.53
2023-03-04T08:59:12.248Z,99302.09
2023-03-04T09:01:15.622Z,99311.22
2023-03-04T09:03:20.911Z,99305.41
2023-03-04T09:05:23.843Z,99307.06
2023-03-04T09:07:26.884Z,99298.47
2023-03-04T09:09:29.970Z,99308.03
2023-03-04T09:11:33.233Z,99295.63
2023-03-04T09:13:36.793Z,99297.78
2023-03-04T09:15:45.306Z,99297.25
2023-03-04T09:17:48.205Z,99298.41
2023-03-04T09:19:52.701Z,99299.41
2023-03-04T09:21:56.283Z,99288.63
2023-03-04T09:23:59.422Z,99297.41
2023-03-04T09:26:02.683Z,99291.09
2023-03-04T09:28:06.023Z,99290.28
2023-03-04T09:30:10.269Z,99295.75
2023-03-04T09:32:13.401Z,99281.00
2023-03-04T09:34:16.666Z,99283.16
2023-03-04T09:36:21.215Z,99295.56
2023-03-04T09:38:25.281Z,99287.16
2023-03-04T09:40:32.321Z,99280.78
2023-03-04T09:42:38.991Z,99282.78
2023-03-04T09:44:46.496Z,99283.59
2023-03-04T09:46:50.679Z,99285.78
2023-03-04T09:48:56.185Z,99288.44
2023-03-04T09:51:11.532Z,99277.16
2023-03-04T09:53:23.981Z,99278.63
2023-03-04T09:55:33.420Z,99272.13
2023-03-04T09:57:51.689Z,99277.25
2023-03-04T10:00:05.744Z,99270.41
2023-03-04T10:02:20.606Z,99263.69
2023-03-04T10:04:34.870Z,99271.44
2023-03-04T10:06:39.669Z,99271.06
2023-03-04T10:08:53.203Z,99268.41
2023-03-04T10:10:59.315Z,99261.19
2023-03-04T10:13:03.558Z,99261.19
2023-03-04T10:15:17.838Z,99263.84
2023-03-04T10:17:24.217Z,99262.81
2023-03-04T10:19:42.961Z,99261.09
2023-03-04T10:21:47.721Z,99250.19
2023-03-04T10:23:54.029Z,99262.31
2023-03-04T10:25:59.563Z,99260.78
2023-03-04T10:28:03.637Z,99260.44
2023-03-04T10:30:19.355Z,99256.97
2023-03-04T10:32:22.387Z,99257.13
2023-03-04T10:34:25.580Z,99256.66
2023-03-04T10:36:41.289Z,99251.94
2023-03-04T10:38:45.389Z,99245.47
2023-03-04T10:40:50.184Z,99244.16
2023-03-04T10:42:54.319Z,99241.22
2023-03-04T10:44:59.037Z,99243.81
2023-03-04T10:47:02.155Z,99237.31
2023-03-04T10:49:05.236Z,99235.31
2023-03-04T10:51:20.185Z,99235.09
2023-03-04T10:53:30.426Z,99230.16
2023-03-04T10:55:44.520Z,99223.50
2023-03-04T10:57:52.454Z,99226.88
2023-03-04T10:59:57.301Z,99219.31
2023-03-04T11:02:00.861Z,99221.50
2023-03-04T11:04:04.004Z,99220.28
2023-03-04T11:06:19.007Z,99220.28
2023-03-04T11:08:23.976Z,99213.03
2023-03-04T11:10:31.102Z,99205.91
2023-03-04T11:12:35.656Z,99208.09
2023-03-04T11:14:44.698Z,99210.38
2023-03-04T11:16:55.193Z,99203.44
2023-03-04T11:19:04.253Z,99202.88
2023-03-04T11:21:08.376Z,99193.84
2023-03-04T11:23:16.597Z,99201.34
2023-03-04T11:25:26.741Z,99192.09
2023-03-04T11:27:39.234Z,99193.50
2023-03-04T11:29:48.937Z,99179.94
2023-03-04T11:31:56.140Z,99190.66
2023-03-04T11:34:04.655Z,99188.75
2023-03-04T11:36:23.700Z,99180.94
2023-03-04T11:38:32.986Z,99179.91
2023-03-04T11:40:42.169Z,99180.22
2023-03-04T11:42:49.753Z,99182.13
2023-03-04T11:44:55.581Z,99176.44
2023-03-04T11:47:17.718Z,99176.34
2023-03-04T11:50:02.206Z,99167.22
2023-03-04T11:52:14.324Z,99159.69
2023-03-04T11:54:30.243Z,99163.47
2023-03-04T11:56:37.250Z,99168.41
2023-03-04T11:58:51.984Z,99158.91
2023-03-04T12:01:01.641Z,99161.63
2023-03-04T12:03:19.640Z,99160.72
2023-03-04T12:05:30.878Z,99152.59
2023-03-04T12:07:54.639Z,99151.84
2023-03-04T12:10:07.403Z,99152.78
2023-03-04T12:12:33.458Z,99150.84
2023-03-04T12:14:43.453Z,99155.00
2023-03-04T12:17:11.763Z,99144.97
2023-03-04T12:19:27.245Z,99149.91
2023-03-04T12:21:50.047Z,99151.88
2023-03-04T12:24:19.249Z,99143.84
2023-03-04T12:26:29.320Z,99136.59
2023-03-04T12:28:44.171Z,99140.63
2023-03-04T12:31:07.593Z,99136.25
2023-03-04T12:33:23.980Z,99140.94
2023-03-04T12:35:37.713Z,99134.22
2023-03-04T12:37:58.718Z,99129.53
2023-03-04T12:40:17.317Z,99130.34
2023-03-04T12:42:30.444Z,99128.13
2023-03-04T12:44:44.038Z,99128.06
2023-03-04T12:47:12.229Z,99127.53
2023-03-04T12:49:46.515Z,99128.53
2023-03-04T12:52:00.108Z,99130.34
2023-03-04T12:54:20.405Z,99121.81
2023-03-04T12:56:27.962Z,99126.69
2023-03-04T12:58:33.196Z,99117.56
2023-03-04T13:00:47.240Z,99112.06
2023-03-04T13:03:02.021Z,99119.78
2023-03-04T13:05:25.501Z,99117.50
2023-03-04T13:07:42.359Z,99106.69
2023-03-04T13:09:52.743Z,99116.19
2023-03-04T13:12:04.338Z,99111.38
2023-03-04T13:14:22.838Z,99112.66
2023-03-04T13:16:35.247Z,99102.56
2023-03-04T13:18:42.619Z,99105.34
2023-03-04T13:20:47.252Z,99117.34
2023-03-04T13:22:56.767Z,99108.53
2023-03-04T13:25:03.079Z,99102.69
2023-03-04T13:27:39.089Z,99103.19
2023-03-04T13:29:42.046Z,99104.47
2023-03-04T13:32:02.935Z,99104.22
2023-03-04T13:34:06.156Z,99102.97
2023-03-04T13:36:41.840Z,99104.22
2023-03-04T13:39:00.870Z,99097.97
2023-03-04T13:41:14.704Z,99106.38
2023-03-04T13:43:29.480Z,99110.22
2023-03-04T13:45:35.757Z,99101.41
2023-03-04T13:47:47.515Z,99097.56
2023-03-04T13:49:50.471Z,99096.94
2023-03-04T13:51:59.917Z,99102.06
2023-03-04T13:54:15.436Z,99103.09
2023-03-04T13:56:25.273Z,99106.84
2023-03-04T13:58:28.718Z,99104.19
2023-03-04T14:00:33.528Z,99105.31
2023-03-04T14:02:36.697Z,99101.81
2023-03-04T14:04:41.433Z,99099.66
2023-03-04T14:06:46.030Z,99102.38
2023-03-04T14:08:51.719Z,99103.41
2023-03-04T14:10:58.246Z,99098.88
2023-03-04T14:13:01.843Z,99096.50
2023-03-04T14:15:13.293Z,99095.31
2023-03-04T14:17:20.011Z,99097.97
2023-03-04T14:19:27.139Z,99100.41
2023-03-04T14:21:31.038Z,99105.63
2023-03-04T14:23:36.356Z,99091.28
2023-03-04T14:25:41.011Z,99089.91
2023-03-04T14:27:44.582Z,99091.56
2023-03-04T14:29:56.219Z,99080.03
2023-03-04T14:32:01.293Z,99076.66
2023-03-04T14:34:05.228Z,99080.53
2023-03-04T14:36:17.819Z,99079.56
2023-03-04T14:38:25.076Z,99078.72
2023-03-04T14:40:33.528Z,99080.13
2023-03-04T14:42:45.518Z,99071.59
2023-03-04T14:44:51.320Z,99080.25
2023-03-04T14:47:07.478Z,99076.53
2023-03-04T14:49:13.750Z,99076.06
2023-03-04T14:51:29.251Z,99073.56
2023-03-04T14:53:34.078Z,99072.63
2023-03-04T14:55:37.062Z,99072.78
2023-03-04T14:57:43.005Z,99070.59
2023-03-04T14:59:46.172Z,99074.44
2023-03-04T15:01:50.019Z,99077.97
2023-03-04T15:03:58.149Z,99069.75
2023-03-04T15:06:15.453Z,99068.56
2023-03-04T15:08:23.027Z,99062.19
2023-03-04T15:10:28.666Z,99063.81
2023-03-04T15:12:34.926Z,99064.78
2023-03-04T15:14:44.735Z,99062.13
2023-03-04T15:16:56.556Z,99052.09
2023-03-04T15:19:02.533Z,99052.31
2023-03-04T15:21:26.268Z,99038.19
2023-03-04T15:23:30.633Z,99047.34
2023-03-04T15:25:35.017Z,99052.84
2023-03-04T15:27:38.119Z,99043.59
2023-03-04T15:29:42.546Z,99040.19
2023-03-04T15:31:48.577Z,99033.16
2023-03-04T15:33:51.930Z,99048.16
2023-03-04T15:35:57.134Z,99042.78
2023-03-04T15:38:00.829Z,99039.28
2023-03-04T15:40:05.350Z,99040.56
2023-03-04T15:42:12.927Z,99041.03
2023-03-04T15:44:16.497Z,99044.25
2023-03-04T15:46:21.202Z,99038.84
2023-03-04T15:48:24.147Z,99035.63
2023-03-04T15:50:29.647Z,99036.25
2023-03-04T15:52:33.829Z,99032.53
2023-03-04T15:54:36.795Z,99038.69
2023-03-04T15:56:39.992Z,99033.53
2023-03-04T15:58:43.915Z,99039.25
2023-03-04T16:00:46.988Z,99052.13
2023-03-04T16:02:51.517Z,99041.84
2023-03-04T16:04:54.740Z,99047.22
2023-03-04T16:07:00.272Z,99052.56
2023-03-04T16:09:07.459Z,99042.91
2023-03-04T16:11:16.279Z,99044.31
2023-03-04T16:13:22.188Z,99047.03
2023-03-04T16:15:29.233Z,99040.66
2023-03-04T16:17:33.047Z,99039.44
2023-03-04T16:19:37.697Z,99044.38
2023-03-04T16:21:41.585Z,99046.19
2023-03-04T16:23:47.757Z,99040.44
2023-03-04T16:25:53.117Z,99042.91
2023-03-04T16:28:05.448Z,99050.53
2023-03-04T16:30:13.370Z,99047.34
2023-03-04T16:32:16.786Z,99051.00
2023-03-04T16:34:19.738Z,99054.50
2023-03-04T16:36:27.220Z,99049.59
2023-03-04T16:38:34.505Z,99047.56
2023-03-04T16:40:37.688Z,99041.59
2023-03-04T16:42:40.848Z,99049.59
2023-03-04T16:44:43.943Z,99051.16
2023-03-04T16:46:47.005Z,99056.47
2023-03-04T16:48:50.001Z,99059.78
2023-03-04T16:50:52.916Z,99060.78
2023-03-04T16:52:57.647Z,99058.75
2023-03-04T16:55:01.048Z,99060.97
2023-03-04T16:57:04.213Z,99064.25
2023-03-04T16:59:07.236Z,99059.31
2023-03-04T17:01:16.994Z,99060.13
2023-03-04T17:03:19.896Z,99069.06
2023-03-04T17:05:24.087Z,99069.97
2023-03-04T17:07:27.006Z,99061.66
2023-03-04T17:09:31.602Z,99065.72
2023-03-04T17:11:34.701Z,99067.13
2023-03-04T17:13:37.716Z,99068.50
2023-03-04T17:15:43.077Z,99064.19
2023-03-04T17:17:46.536Z,99066.81
2023-03-04T17:19:50.298Z,99079.63
2023-03-04T17:21:53.585Z,99072.75
2023-03-04T17:23:56.535Z,99081.28
2023-03-04T17:26:01.510Z,99078.97
2023-03-04T17:28:04.888Z,99070.75
2023-03-04T17:30:11.525Z,99073.22
2023-03-04T17:32:14.887Z,99083.84
2023-03-04T17:34:19.381Z,99069.38
2023-03-04T17:36:22.625Z,99083.84
2023-03-04T17:38:25.537Z,99075.19
2023-03-04T17:40:28.467Z,99079.47
2023-03-04T17:42:33.185Z,99071.91
2023-03-04T17:44:36.017Z,99073.16
2023-03-04T17:46:39.578Z,99079.22
2023-03-04T17:48:43.262Z,99071.63
2023-03-04T17:50:49.905Z,99068.16
2023-03-04T17:52:52.858Z,99056.50
2023-03-04T17:54:55.936Z,99064.88
2023-03-04T17:56:58.806Z,99062.94
2023-03-04T17:59:05.560Z,99055.63
2023-03-04T18:01:17.057Z,99055.63
2023-03-04T18:03:20.507Z,99063.41
2023-03-04T18:05:23.561Z,99061.09
2023-03-04T18:07:26.611Z,99062.94
2023-03-04T18:09:29.537Z,99062.75
2023-03-04T18:11:34.326Z,99072.56
2023-03-04T18:13:38.077Z,99069.06
2023-03-04T18:15:42.499Z,99081.56
2023-03-04T18:17:46.438Z,99079.88
2023-03-04T18:19:49.978Z,99086.03
2023-03-04T18:21:53.367Z,99075.59
2023-03-04T18:23:58.610Z,99077.03
2023-03-04T18:26:02.839Z,99080.34
2023-03-04T18:28:06.073Z,99078.06
2023-03-04T18:30:11.852Z,99077.03
2023-03-04T18:32:16.363Z,99074.75
2023-03-04T18:34:19.458Z,99087.22
2023-03-04T18:36:22.480Z,99086.22
2023-03-04T18:38:25.360Z,99085.78
2023-03-04T18:40:29.020Z,99081.56
2023-03-04T18:42:31.864Z,99085.47
2023-03-04T18:44:34.756Z,99091.34
2023-03-04T18:46:41.430Z,99090.44
2023-03-04T18:48:50.187Z,99084.50
2023-03-04T18:50:58.476Z,99085.88
2023-03-04T18:53:01.341Z,99087.16
2023-03-04T18:55:04.525Z,99081.75
2023-03-04T18:57:10.605Z,99089.19
2023-03-04T18:59:18.022Z,99092.19
2023-03-04T19:01:23.305Z,99093.00
2023-03-04T19:03:26.493Z,99094.09
2023-03-04T19:05:33.484Z,99095.94
2023-03-04T19:07:36.256Z,99099.97
2023-03-04T19:09:39.252Z,99092.09
2023-03-04T19:11:42.048Z,99100.31
2023-03-04T19:13:45.044Z,99099.22
2023-03-04T19:15:48.002Z,99107.03
2023-03-04T19:17:51.033Z,99119.38
2023-03-04T19:19:53.872Z,99124.09
2023-03-04T19:21:58.902Z,99117.09
2023-03-04T19:24:01.689Z,99130.94
2023-03-04T19:26:07.292Z,99126.63
2023-03-04T19:28:11.152Z,99108.44
2023-03-04T19:30:14.490Z,99108.78
2023-03-04T19:32:18.148Z,99105.38
2023-03-04T19:34:21.172Z,99104.09
2023-03-04T19:36:25.760Z,99099.72
2023-03-04T19:38:31.358Z,99091.91
2023-03-04T19:40:34.653Z,99099.16
2023-03-04T19:42:37.814Z,99101.06
2023-03-04T19:44:42.632Z,99094.84
2023-03-04T19:46:47.430Z,99101.59
2023-03-04T19:48:50.600Z,99095.56
2023-03-04T19:50:53.482Z,99101.13
2023-03-04T19:52:56.470Z,99099.69
2023-03-04T19:55:01.128Z,99099.84
2023-03-04T19:57:04.370Z,99098.66
2023-03-04T19:59:07.648Z,99099.69
2023-03-04T20:01:20.355Z,99100.84
2023-03-04T20:03:24.492Z,99098.41
2023-03-04T20:05:27.640Z,99098.41
2023-03-04T20:07:31.020Z,99101.19
2023-03-04T20:09:34.350Z,99108.16
2023-03-04T20:11:47.361Z,99099.25
2023-03-04T20:14:00.687Z,99105.59
2023-03-04T20:16:08.118Z,99103.13
2023-03-04T20:18:11.065Z,99106.56
2023-03-04T20:20:14.626Z,99104.75
2023-03-04T20:22:17.516Z,99097.81
2023-03-04T20:24:23.489Z,99102.28
2023-03-04T20:26:26.697Z,99098.34
2023-03-04T20:28:31.685Z,99092.75
2023-03-04T20:30:34.577Z,99095.22
2023-03-04T20:32:37.899Z,99103.19
2023-03-04T20:34:41.009Z,99101.53
2023-03-04T20:36:43.995Z,99096.59
2023-03-04T20:38:50.345Z,99097.75
2023-03-04T20:40:59.404Z,99097.75
2023-03-04T20:43:05.980Z,99100.41
2023-03-04T20:45:15.329Z,99100.59
2023-03-04T20:47:21.864Z,99094.47
2023-03-04T20:49:28.901Z,99096.84
2023-03-04T20:51:35.709Z,99094.84
2023-03-04T20:53:43.640Z,99093.00
2023-03-04T20:55:47.895Z,99096.59
2023-03-04T20:57:53.347Z,99094.41
2023-03-04T20:59:57.200Z,99091.22
2023-03-04T21:02:02.051Z,99085.19
2023-03-04T21:04:05.858Z,99087.28
2023-03-04T21:06:10.682Z,99087.78
2023-03-04T21:08:13.755Z,99084.03
2023-03-04T21:10:19.856Z,99079.00
2023-03-04T21:12:22.854Z,99073.81
2023-03-04T21:14:28.321Z,99077.56
2023-03-04T21:16:31.452Z,99070.03
2023-03-04T21:18:36.013Z,99074.63
2023-03-04T21:20:40.131Z,99091.66
2023-03-04T21:22:43.150Z,99109.78
2023-03-04T21:24:47.239Z,99107.91
2023-03-04T21:26:51.515Z,99112.13
2023-03-04T21:28:55.040Z,99112.69
2023-03-04T21:30:58.420Z,99120.13
2023-03-04T21:33:03.764Z,99116.31
2023-03-04T21:35:15.713Z,99108.69
2023-03-04T21:37:18.742Z,99105.06
2023-03-04T21:39:24.541Z,99109.44
2023-03-04T21:41:27.176Z,99104.97
2023-03-04T21:43:30.261Z,99096.47
2023-03-04T21:45:33.466Z,99101.03
2023-03-04T21:47:36.776Z,99098.91
2023-03-04T21:49:40.144Z,99107.69
2023-03-04T21:51:45.172Z,99103.09
2023-03-04T21:53:48.218Z,99102.25
2023-03-04T21:55:53.834Z,99101.41
2023-03-04T21:57:56.296Z,99101.91
2023-03-04T21:59:59.589Z,99108.91
2023-03-04T22:02:03.012Z,99103.41
2023-03-04T22:04:06.229Z,99107.47
2023-03-04T22:06:10.785Z,99102.16
2023-03-04T22:08:16.440Z,99103.78
2023-03-04T22:10:24.935Z,99107.13
2023-03-04T22:12:31.472Z,99104.84
2023-03-04T22:14:34.582Z,99101.72
2023-03-04T22:16:48.943Z,99108.84
2023-03-04T22:18:57.405Z,99103.84
2023-03-04T22:21:02.115Z,99101.84
2023-03-04T22:23:14.562Z,99106.50
2023-03-04T22:25:23.844Z,99111.31
2023-03-04T22:27:26.727Z,99106.50
2023-03-04T22:29:29.714Z,99103.84
2023-03-04T22:31:34.712Z,99101.88
2023-03-04T22:33:40.692Z,99105.00
2023-03-04T22:35:46.757Z,99100.97
2023-03-04T22:37:49.891Z,99109.19
2023-03-04T22:39:58.532Z,99103.78
2023-03-04T22:42:23.133Z,99109.09
2023-03-04T22:44:26.180Z,99097.19
2023-03-04T22:46:31.134Z,99105.56
2023-03-04T22:48:37.595Z,99107.19
2023-03-04T22:50:40.953Z,99103.28
2023-03-04T22:52:44.491Z,99112.84
2023-03-04T22:54:47.407Z,99116.19
2023-03-04T22:56:50.515Z,99112.72
2023-03-04T22:58:57.891Z,99120.66
2023-03-04T23:01:04.288Z,99120.34
2023-03-04T23:03:08.884Z,99122.81
2023-03-04T23:05:12.625Z,99117.50
2023-03-04T23:07:15.731Z,99123.69
2023-03-04T23:09:26.794Z,99125.13
2023-03-04T23:11:33.140Z,99122.34
2023-03-04T23:13:36.622Z,99114.84
2023-03-04T23:15:42.313Z,99117.19
2023-03-04T23:17:47.643Z,99114.84
2023-03-04T23:20:08.532Z,99120.00
2023-03-04T23:22:11.662Z,99112.72
2023-03-04T23:24:19.052Z,99107.59
2023-03-04T23:26:25.346Z,99109.25
2023-03-04T23:28:32.444Z,99113.38
2023-03-04T23:30:35.742Z,99116.19
2023-03-04T23:32:40.205Z,99118.50
2023-03-04T23:34:43.154Z,99111.19
2023-03-04T23:36:46.033Z,99111.56
2023-03-04T23:38:49.120Z,99122.38
2023-03-04T23:40:52.044Z,99127.13
2023-03-04T23:42:55.123Z,99134.28
2023-03-04T23:44:58.103Z,99127.78
2023-03-04T23:47:02.232Z,99120.00
2023-03-04T23:49:07.715Z,99119.53
2023-03-04T23:51:11.732Z,99119.38
2023-03-04T23:53:14.811Z,99124.47
2023-03-04T23:55:18.960Z,99124.84
2023-03-04T23:57:21.968Z,99127.78
2023-03-04T23:59:27.197Z,99129.13
